Time;durP1;ratioP1;P1;durP2;ratioP2;P2;SDS_P1;SDS_P2;PMS_P1;PMS_P2;Temp;Humidity;BMP_temperature;BMP_pressure;BME280_temperature;BME280_humidity;BME280_pressure;Samples;Min_cycle;Max_cycle;Signal;HPM_P1;HPM_P2
2022/09/03 00:01:17;;;;;;;1.52;1.42;;;;;;;;;;4973585;28;20031;-64
2022/09/03 00:03:44;;;;;;;2.22;1.65;;;;;;;;;;4974060;28;20110;-64
2022/09/03 00:06:17;;;;;;;2.13;1.40;;;;;;;;;;4973649;28;20027;-64
2022/09/03 00:08:45;;;;;;;1.60;1.40;;;;;;;;;;4973974;28;20113;-64
2022/09/03 00:11:18;;;;;;;3.33;1.67;;;;;;;;;;4973347;28;20103;-63
2022/09/03 00:13:46;;;;;;;1.73;1.60;;;;;;;;;;4973402;28;20042;-65
2022/09/03 00:16:12;;;;;;;1.80;1.70;;;;;;;;;;4974124;28;20359;-65
2022/09/03 00:18:47;;;;;;;2.97;1.80;;;;;;;;;;4973560;28;20031;-65
2022/09/03 00:21:45;;;;;;;2.17;1.88;;;;;;;;;;4974059;28;20031;-65
2022/09/03 00:24:13;;;;;;;2.25;1.80;;;;;;;;;;4940809;28;20053;-64
2022/09/03 00:26:41;;;;;;;3.45;1.92;;;;;;;;;;4973475;28;20382;-64
2022/09/03 00:29:09;;;;;;;2.08;1.65;;;;;;;;;;4954853;28;20046;-64
2022/09/03 00:31:41;;;;;;;3.53;1.55;;;;;;;;;;4972984;28;20046;-65
2022/09/03 00:34:40;;;;;;;1.80;1.70;;;;;;;;;;4973037;28;20508;-63
2022/09/03 00:37:09;;;;;;;2.88;1.75;;;;;;;;;;4924697;28;20077;-64
2022/09/03 00:39:35;;;;;;;1.75;1.48;;;;;;;;;;4955872;28;20031;-64
2022/09/03 00:42:20;;;;;;;1.52;1.42;;;;;;;;;;4956031;28;20479;-65
2022/09/03 00:44:58;;;;;;;1.70;1.60;;;;;;;;;;4972958;28;20043;-65
2022/09/03 00:47:31;;;;;;;1.67;1.58;;;;;;;;;;4973060;28;20031;-65
2022/09/03 00:50:03;;;;;;;1.67;1.58;;;;;;;;;;4972869;28;20105;-65
2022/09/03 00:52:47;;;;;;;1.60;1.50;;;;;;;;;;4973624;28;20454;-65
2022/09/03 00:55:12;;;;;;;2.15;1.50;;;;;;;;;;4973307;28;20031;-64
2022/09/03 00:57:50;;;;;;;3.40;1.42;;;;;;;;;;4972734;28;20033;-65
2022/09/03 01:00:18;;;;;;;1.80;1.40;;;;;;;;;;4973367;28;20375;-63
2022/09/03 01:02:45;;;;;;;1.75;1.65;;;;;;;;;;4972982;28;20455;-65
2022/09/03 01:05:21;;;;;;;3.00;1.40;;;;;;;;;;4972602;28;20027;-64
2022/09/03 01:07:53;;;;;;;2.03;1.70;;;;;;;;;;4971313;28;20039;-65
2022/09/03 01:10:30;;;;;;;2.60;1.40;;;;;;;;;;4972772;28;20027;-65
2022/09/03 01:13:02;;;;;;;4.28;1.50;;;;;;;;;;4955307;28;20042;-65
2022/09/03 01:15:33;;;;;;;2.63;1.42;;;;;;;;;;4970961;28;20058;-64
2022/09/03 01:18:05;;;;;;;1.73;1.63;;;;;;;;;;4972542;28;20030;-64
2022/09/03 01:20:50;;;;;;;1.50;1.40;;;;;;;;;;4972849;28;20030;-63
2022/09/03 01:23:34;;;;;;;3.42;1.73;;;;;;;;;;4972108;28;20102;-65
2022/09/03 01:26:14;;;;;;;1.67;1.58;;;;;;;;;;4972222;28;20031;-64
2022/09/03 01:28:41;;;;;;;3.05;1.65;;;;;;;;;;4972386;28;20034;-65
2022/09/03 01:31:15;;;;;;;3.15;1.67;;;;;;;;;;4972209;28;20075;-63
2022/09/03 01:34:04;;;;;;;2.33;1.67;;;;;;;;;;4972506;28;20386;-64
2022/09/03 01:36:30;;;;;;;1.47;1.33;;;;;;;;;;4964508;28;20053;-65
2022/09/03 01:38:59;;;;;;;1.40;1.30;;;;;;;;;;4972894;28;20080;-65
2022/09/03 01:44:31;;;;;;;3.05;1.48;;;;;;;;;;4972221;28;20480;-64
2022/09/03 01:47:06;;;;;;;1.58;1.48;;;;;;;;;;4972404;28;20018;-64
2022/09/03 01:50:04;;;;;;;1.70;1.60;;;;;;;;;;4972283;28;20037;-63
2022/09/03 01:52:30;;;;;;;1.90;1.50;;;;;;;;;;4939670;28;20053;-64
2022/09/03 01:55:21;;;;;;;4.18;1.65;;;;;;;;;;4972664;28;20027;-65
2022/09/03 01:57:49;;;;;;;2.67;1.50;;;;;;;;;;4954997;28;20105;-63
2022/09/03 02:00:19;;;;;;;2.40;1.73;;;;;;;;;;4955003;28;20023;-64
2022/09/03 02:02:54;;;;;;;2.50;1.63;;;;;;;;;;4977601;22;20027;-66
2022/09/03 02:05:23;;;;;;;2.05;1.85;;;;;;;;;;5050977;28;20174;-61
2022/09/03 02:07:53;;;;;;;1.75;1.50;;;;;;;;;;5053620;28;20025;-61
2022/09/03 02:10:21;;;;;;;2.90;1.80;;;;;;;;;;5053879;28;20033;-61
2022/09/03 02:12:54;;;;;;;1.65;1.55;;;;;;;;;;5035388;28;20044;-61
2022/09/03 02:15:21;;;;;;;1.70;1.50;;;;;;;;;;5053064;28;20388;-61
2022/09/03 02:17:51;;;;;;;2.90;1.48;;;;;;;;;;5035420;28;20441;-62
2022/09/03 02:20:19;;;;;;;2.15;1.83;;;;;;;;;;5053144;28;20025;-68
2022/09/03 02:22:44;;;;;;;2.58;1.65;;;;;;;;;;5053191;28;20032;-62
2022/09/03 02:25:10;;;;;;;1.83;1.73;;;;;;;;;;5052705;28;20021;-62
2022/09/03 02:27:37;;;;;;;2.63;1.90;;;;;;;;;;5052941;28;20400;-62
2022/09/03 02:30:02;;;;;;;1.77;1.63;;;;;;;;;;5053127;28;20123;-62
2022/09/03 02:32:28;;;;;;;2.35;1.60;;;;;;;;;;5053395;28;20053;-62
2022/09/03 02:34:53;;;;;;;3.45;2.03;;;;;;;;;;5053125;28;20459;-62
2022/09/03 02:37:19;;;;;;;3.00;1.40;;;;;;;;;;5053272;28;20067;-62
2022/09/03 02:39:44;;;;;;;4.43;1.90;;;;;;;;;;5053252;28;20041;-62
2022/09/03 02:42:11;;;;;;;4.28;1.95;;;;;;;;;;5053214;28;20060;-62
2022/09/03 02:44:39;;;;;;;4.55;1.98;;;;;;;;;;5035053;28;20407;-62
2022/09/03 02:47:05;;;;;;;3.83;1.80;;;;;;;;;;5052918;28;20017;-61
2022/09/03 02:49:31;;;;;;;3.65;1.92;;;;;;;;;;5052414;28;20039;-61
2022/09/03 02:52:00;;;;;;;2.35;1.83;;;;;;;;;;5053154;28;20021;-61
2022/09/03 02:54:32;;;;;;;2.80;1.83;;;;;;;;;;5055434;28;20036;-62
2022/09/03 02:56:57;;;;;;;3.20;2.00;;;;;;;;;;5055082;28;20033;-61
2022/09/03 02:59:23;;;;;;;3.45;2.30;;;;;;;;;;5054333;28;20028;-62
2022/09/03 03:01:48;;;;;;;2.53;2.00;;;;;;;;;;5054278;28;20123;-61
2022/09/03 03:04:14;;;;;;;2.63;1.95;;;;;;;;;;5054150;28;20047;-61
2022/09/03 03:06:39;;;;;;;2.88;2.38;;;;;;;;;;5035231;28;20075;-62
2022/09/03 03:09:05;;;;;;;2.92;2.10;;;;;;;;;;5052399;28;20029;-61
2022/09/03 03:11:31;;;;;;;3.80;2.15;;;;;;;;;;5018019;28;20033;-61
2022/09/03 03:13:56;;;;;;;2.28;2.05;;;;;;;;;;5052663;28;20092;-62
2022/09/03 03:16:22;;;;;;;3.72;2.10;;;;;;;;;;5053007;28;20366;-61
2022/09/03 03:18:47;;;;;;;2.55;2.30;;;;;;;;;;5054369;28;20021;-61
2022/09/03 03:21:14;;;;;;;2.78;2.20;;;;;;;;;;5054347;28;20419;-61
2022/09/03 03:23:39;;;;;;;2.60;2.40;;;;;;;;;;5036630;28;20070;-61
2022/09/03 03:26:06;;;;;;;2.75;2.00;;;;;;;;;;5056041;28;20036;-61
2022/09/03 03:28:34;;;;;;;4.20;2.40;;;;;;;;;;5038140;28;20507;-62
2022/09/03 03:31:06;;;;;;;3.13;2.10;;;;;;;;;;5055952;28;20032;-61
2022/09/03 03:33:32;;;;;;;2.30;2.05;;;;;;;;;;5021639;28;20032;-61
2022/09/03 03:35:57;;;;;;;4.05;2.28;;;;;;;;;;5055877;28;20036;-62
2022/09/03 03:38:22;;;;;;;3.50;2.10;;;;;;;;;;5056306;28;20033;-61
2022/09/03 03:40:48;;;;;;;2.50;2.28;;;;;;;;;;5037935;28;20028;-64
2022/09/03 03:43:13;;;;;;;3.10;2.08;;;;;;;;;;5056269;28;20104;-62
2022/09/03 03:45:38;;;;;;;3.67;2.13;;;;;;;;;;5056245;28;20064;-61
2022/09/03 03:48:05;;;;;;;3.08;2.10;;;;;;;;;;5055944;28;20457;-61
2022/09/03 03:50:30;;;;;;;4.35;2.28;;;;;;;;;;5055874;28;20100;-62
2022/09/03 03:52:59;;;;;;;2.83;2.28;;;;;;;;;;5055838;28;20048;-62
2022/09/03 03:55:24;;;;;;;3.22;2.40;;;;;;;;;;5055496;28;20020;-62
2022/09/03 03:57:49;;;;;;;3.17;2.17;;;;;;;;;;5055701;28;20024;-61
2022/09/03 04:00:15;;;;;;;2.33;2.13;;;;;;;;;;5020957;28;20041;-61
2022/09/03 04:02:47;;;;;;;3.55;2.28;;;;;;;;;;5055283;28;20025;-61
2022/09/03 04:05:12;;;;;;;3.55;2.30;;;;;;;;;;5055219;28;20385;-61
2022/09/03 04:07:37;;;;;;;3.67;2.40;;;;;;;;;;5055251;28;20040;-62
2022/09/03 04:10:03;;;;;;;3.22;2.15;;;;;;;;;;5037327;28;20443;-61
2022/09/03 04:12:28;;;;;;;3.63;2.15;;;;;;;;;;5055708;28;20452;-62
2022/09/03 04:14:54;;;;;;;2.65;2.08;;;;;;;;;;5055688;28;20017;-61
2022/09/03 04:17:19;;;;;;;4.03;2.40;;;;;;;;;;5037271;28;20404;-62
2022/09/03 04:19:46;;;;;;;2.83;2.30;;;;;;;;;;5054965;28;20452;-63
2022/09/03 04:22:14;;;;;;;4.47;2.67;;;;;;;;;;5055273;28;20103;-62
2022/09/03 04:24:39;;;;;;;4.05;2.28;;;;;;;;;;5054945;28;20017;-62
2022/09/03 04:27:05;;;;;;;2.90;2.10;;;;;;;;;;5055477;28;20464;-64
2022/09/03 04:29:30;;;;;;;4.30;2.35;;;;;;;;;;5054877;28;20017;-63
2022/09/03 04:34:39;;;;;;;2.78;2.40;;;;;;;;;;5055340;28;20039;-62
2022/09/03 04:37:05;;;;;;;3.20;2.13;;;;;;;;;;5054722;28;20021;-63
2022/09/03 04:39:30;;;;;;;2.97;2.30;;;;;;;;;;5054602;28;20033;-62
2022/09/03 04:41:55;;;;;;;4.45;2.75;;;;;;;;;;5054899;28;20024;-63
2022/09/03 04:44:21;;;;;;;3.03;2.65;;;;;;;;;;5036720;28;20025;-62
2022/09/03 04:46:47;;;;;;;4.97;2.40;;;;;;;;;;5054537;28;20460;-63
2022/09/03 04:49:12;;;;;;;6.18;2.30;;;;;;;;;;5054620;28;20059;-62
2022/09/03 04:51:38;;;;;;;4.05;2.50;;;;;;;;;;5054413;28;20388;-62
2022/09/03 04:54:03;;;;;;;3.10;2.30;;;;;;;;;;5054378;28;20032;-63
2022/09/03 04:56:30;;;;;;;2.80;2.25;;;;;;;;;;5054380;28;20024;-62
2022/09/03 04:58:56;;;;;;;2.58;2.38;;;;;;;;;;5054227;28;20065;-62
2022/09/03 05:01:22;;;;;;;4.97;2.55;;;;;;;;;;5054215;28;20021;-62
2022/09/03 05:03:51;;;;;;;5.50;2.40;;;;;;;;;;5054420;28;20118;-63
2022/09/03 05:06:16;;;;;;;4.25;2.50;;;;;;;;;;5054716;28;20104;-62
2022/09/03 05:08:43;;;;;;;4.13;2.53;;;;;;;;;;5054410;28;20564;-62
2022/09/03 05:11:09;;;;;;;7.90;2.60;;;;;;;;;;5037479;28;20051;-62
2022/09/03 05:13:38;;;;;;;2.80;2.30;;;;;;;;;;5054572;28;20037;-62
2022/09/03 05:16:05;;;;;;;4.05;2.30;;;;;;;;;;5054076;28;20091;-63
2022/09/03 05:18:31;;;;;;;4.07;3.03;;;;;;;;;;5054156;28;20117;-63
2022/09/03 05:21:00;;;;;;;4.55;2.45;;;;;;;;;;5054170;28;20045;-63
2022/09/03 05:23:26;;;;;;;3.72;2.47;;;;;;;;;;5054153;28;20032;-62
2022/09/03 05:25:57;;;;;;;4.13;2.40;;;;;;;;;;5054121;28;20028;-63
2022/09/03 05:28:23;;;;;;;5.15;2.92;;;;;;;;;;5054338;28;20064;-62
2022/09/03 05:30:57;;;;;;;3.15;2.70;;;;;;;;;;5053723;28;20052;-63
2022/09/03 05:33:23;;;;;;;4.07;2.50;;;;;;;;;;5053970;28;20037;-62
2022/09/03 05:35:48;;;;;;;3.40;2.22;;;;;;;;;;5036489;28;20071;-63
2022/09/03 05:38:16;;;;;;;4.53;2.50;;;;;;;;;;5053599;28;20029;-62
2022/09/03 05:40:42;;;;;;;4.22;2.63;;;;;;;;;;5054188;28;20047;-63
2022/09/03 05:43:07;;;;;;;3.70;2.50;;;;;;;;;;5036111;28;20033;-63
2022/09/03 05:45:32;;;;;;;4.18;2.53;;;;;;;;;;5053837;28;20021;-63
2022/09/03 05:47:59;;;;;;;5.25;2.75;;;;;;;;;;5053542;28;20472;-63
2022/09/03 05:50:24;;;;;;;2.95;2.70;;;;;;;;;;5053784;28;20449;-63
2022/09/03 05:52:50;;;;;;;3.03;2.25;;;;;;;;;;5053523;28;20039;-63
2022/09/03 05:55:15;;;;;;;5.10;2.85;;;;;;;;;;5053775;28;20114;-62
2022/09/03 05:57:42;;;;;;;5.63;2.60;;;;;;;;;;5053758;28;20384;-62
2022/09/03 06:00:09;;;;;;;3.22;2.80;;;;;;;;;;5053387;28;20411;-62
2022/09/03 06:02:37;;;;;;;2.60;2.40;;;;;;;;;;5053414;28;20039;-62
2022/09/03 06:05:02;;;;;;;4.25;2.40;;;;;;;;;;5053192;28;20049;-62
2022/09/03 06:07:28;;;;;;;2.63;2.42;;;;;;;;;;5053942;28;20025;-63
2022/09/03 06:09:53;;;;;;;3.88;2.72;;;;;;;;;;5053617;28;20522;-62
2022/09/03 06:12:19;;;;;;;2.75;2.55;;;;;;;;;;5053608;28;20044;-62
2022/09/03 06:14:44;;;;;;;5.72;2.88;;;;;;;;;;5053318;28;20025;-62
2022/09/03 06:17:11;;;;;;;4.00;2.58;;;;;;;;;;5053315;28;20048;-63
2022/09/03 06:19:36;;;;;;;3.65;2.55;;;;;;;;;;5035774;28;20449;-63
2022/09/03 06:22:02;;;;;;;3.25;2.50;;;;;;;;;;5053248;28;20048;-63
2022/09/03 06:24:28;;;;;;;3.05;2.75;;;;;;;;;;5053807;28;20026;-63
2022/09/03 06:26:54;;;;;;;3.28;2.97;;;;;;;;;;5054545;28;20043;-63
2022/09/03 06:29:20;;;;;;;4.93;2.58;;;;;;;;;;5057423;28;20444;-63
2022/09/03 06:31:50;;;;;;;3.10;2.80;;;;;;;;;;5039584;28;20037;-63
2022/09/03 06:34:17;;;;;;;5.25;2.80;;;;;;;;;;5057578;28;20075;-63
2022/09/03 06:36:42;;;;;;;4.22;2.47;;;;;;;;;;5057553;28;20044;-63
2022/09/03 06:39:08;;;;;;;2.55;2.30;;;;;;;;;;5056888;28;20029;-63
2022/09/03 06:41:34;;;;;;;3.90;2.55;;;;;;;;;;5038978;28;20037;-62
2022/09/03 06:44:04;;;;;;;3.65;2.70;;;;;;;;;;5056891;28;20465;-62
2022/09/03 06:46:30;;;;;;;3.97;2.95;;;;;;;;;;5056837;28;20033;-63
2022/09/03 06:48:56;;;;;;;3.20;2.90;;;;;;;;;;5057056;28;20021;-63
2022/09/03 06:51:23;;;;;;;5.88;3.10;;;;;;;;;;5057302;28;20071;-62
2022/09/03 06:53:49;;;;;;;4.00;2.92;;;;;;;;;;5056658;28;20017;-65
2022/09/03 06:56:16;;;;;;;5.40;2.55;;;;;;;;;;5039165;28;20040;-66
2022/09/03 06:58:45;;;;;;;3.13;2.40;;;;;;;;;;5038670;28;20021;-66
2022/09/03 07:01:12;;;;;;;2.35;2.15;;;;;;;;;;5056563;28;20106;-66
2022/09/03 07:03:38;;;;;;;2.72;2.45;;;;;;;;;;5056565;28;20142;-66
2022/09/03 07:06:05;;;;;;;4.03;3.00;;;;;;;;;;5056986;28;20025;-66
2022/09/03 07:08:31;;;;;;;3.20;2.65;;;;;;;;;;5056996;28;20487;-66
2022/09/03 07:11:04;;;;;;;3.45;2.50;;;;;;;;;;5056377;28;20362;-66
2022/09/03 07:13:31;;;;;;;2.65;2.45;;;;;;;;;;5056596;28;20032;-66
2022/09/03 07:16:06;;;;;;;3.35;1.88;;;;;;;;;;5038345;28;20017;-66
2022/09/03 07:18:32;;;;;;;2.55;2.20;;;;;;;;;;5056427;28;20032;-66
2022/09/03 07:21:02;;;;;;;2.50;2.28;;;;;;;;;;5056195;28;20024;-66
2022/09/03 07:23:28;;;;;;;5.07;2.60;;;;;;;;;;5056439;28;20100;-66
2022/09/03 07:25:58;;;;;;;2.22;2.03;;;;;;;;;;5038302;28;20040;-66
2022/09/03 07:28:24;;;;;;;2.58;2.38;;;;;;;;;;5056329;28;20158;-66
2022/09/03 07:30:50;;;;;;;3.10;2.58;;;;;;;;;;5038947;28;20035;-66
2022/09/03 07:33:17;;;;;;;2.50;2.28;;;;;;;;;;5038050;28;20056;-66
2022/09/03 07:35:43;;;;;;;2.63;2.40;;;;;;;;;;5056182;28;20021;-66
2022/09/03 07:38:09;;;;;;;3.42;2.60;;;;;;;;;;5037494;28;20043;-66
2022/09/03 07:40:34;;;;;;;2.92;2.63;;;;;;;;;;5056104;28;20016;-66
2022/09/03 07:43:03;;;;;;;4.65;2.80;;;;;;;;;;5056040;28;20464;-66
2022/09/03 07:45:29;;;;;;;4.00;2.47;;;;;;;;;;5055721;28;20017;-66
2022/09/03 07:47:55;;;;;;;3.50;2.90;;;;;;;;;;5037826;28;20033;-66
2022/09/03 07:50:20;;;;;;;3.17;2.47;;;;;;;;;;5055949;28;20047;-66
2022/09/03 07:52:46;;;;;;;3.83;2.80;;;;;;;;;;5055588;28;20033;-66
2022/09/03 07:55:12;;;;;;;4.15;2.90;;;;;;;;;;5055535;28;20029;-66
2022/09/03 07:57:37;;;;;;;2.70;2.50;;;;;;;;;;5055456;28;20033;-66
2022/09/03 08:00:03;;;;;;;5.50;3.42;;;;;;;;;;5055379;28;20067;-66
2022/09/03 08:02:36;;;;;;;3.17;2.67;;;;;;;;;;5055385;28;20417;-66
2022/09/03 08:05:02;;;;;;;3.80;3.13;;;;;;;;;;5037420;28;20048;-66
2022/09/03 08:07:28;;;;;;;5.25;2.95;;;;;;;;;;5055341;28;20036;-66
2022/09/03 08:09:53;;;;;;;2.90;2.60;;;;;;;;;;5055304;28;20037;-66
2022/09/03 08:12:19;;;;;;;3.40;3.20;;;;;;;;;;5055786;28;20035;-66
2022/09/03 08:14:44;;;;;;;3.22;2.92;;;;;;;;;;5055169;28;20051;-66
2022/09/03 08:17:11;;;;;;;3.53;3.20;;;;;;;;;;5055427;28;20098;-66
2022/09/03 08:19:36;;;;;;;3.83;2.85;;;;;;;;;;5055324;28;20461;-66
2022/09/03 08:22:02;;;;;;;5.60;2.70;;;;;;;;;;5055085;28;20031;-66
2022/09/03 08:24:27;;;;;;;5.63;3.00;;;;;;;;;;5055298;28;20091;-66
2022/09/03 08:26:53;;;;;;;8.32;3.20;;;;;;;;;;5054959;28;20104;-66
2022/09/03 08:29:19;;;;;;;3.83;3.33;;;;;;;;;;5055170;28;20028;-66
2022/09/03 08:31:44;;;;;;;4.80;3.40;;;;;;;;;;5054865;28;20427;-66
2022/09/03 08:34:10;;;;;;;3.45;3.00;;;;;;;;;;5055095;28;20040;-66
2022/09/03 08:36:37;;;;;;;3.28;2.47;;;;;;;;;;5055295;28;20013;-66
2022/09/03 08:39:06;;;;;;;3.20;2.92;;;;;;;;;;5036691;28;20039;-66
2022/09/03 08:41:40;;;;;;;6.45;3.15;;;;;;;;;;5054963;28;20025;-66
2022/09/03 08:44:09;;;;;;;2.95;2.75;;;;;;;;;;5054902;28;20021;-66
2022/09/03 08:46:40;;;;;;;3.05;2.80;;;;;;;;;;5055132;28;20021;-66
2022/09/03 08:49:07;;;;;;;2.88;2.67;;;;;;;;;;5054138;28;20032;-66
2022/09/03 08:51:32;;;;;;;3.47;3.17;;;;;;;;;;5054592;28;20024;-66
2022/09/03 08:53:59;;;;;;;3.85;3.45;;;;;;;;;;5054432;28;20040;-66
2022/09/03 08:56:29;;;;;;;9.30;3.03;;;;;;;;;;5036503;28;20366;-66
2022/09/03 08:58:55;;;;;;;3.08;2.88;;;;;;;;;;5036810;28;20143;-66
2022/09/03 09:01:40;;;;;;;3.90;3.50;;;;;;;;;;5054819;28;20013;-66
2022/09/03 09:04:17;;;;;;;3.47;2.92;;;;;;;;;;5054114;28;20045;-66
2022/09/03 09:06:46;;;;;;;3.33;3.03;;;;;;;;;;5036360;28;20029;-66
2022/09/03 09:09:29;;;;;;;4.43;2.92;;;;;;;;;;5054447;28;20025;-66
2022/09/03 09:11:54;;;;;;;3.30;3.00;;;;;;;;;;5054084;28;20032;-66
2022/09/03 09:14:38;;;;;;;3.08;2.75;;;;;;;;;;5054639;28;20350;-66
2022/09/03 09:17:04;;;;;;;3.78;3.10;;;;;;;;;;5054273;28;20029;-66
2022/09/03 09:19:36;;;;;;;3.85;3.20;;;;;;;;;;5036424;28;20024;-66
2022/09/03 09:22:03;;;;;;;2.88;2.67;;;;;;;;;;5054459;28;20108;-66
2022/09/03 09:24:40;;;;;;;5.00;3.40;;;;;;;;;;5054173;28;20017;-66
2022/09/03 09:27:06;;;;;;;4.28;3.28;;;;;;;;;;5053878;28;20389;-63
2022/09/03 09:29:32;;;;;;;4.07;3.70;;;;;;;;;;5053805;28;20025;-62
2022/09/03 09:31:58;;;;;;;4.05;3.53;;;;;;;;;;5053773;28;20033;-63
2022/09/03 09:34:23;;;;;;;3.22;3.03;;;;;;;;;;5054280;28;20032;-63
2022/09/03 09:36:51;;;;;;;3.30;2.97;;;;;;;;;;5036259;28;20377;-62
2022/09/03 09:39:16;;;;;;;3.45;3.15;;;;;;;;;;5053587;28;20024;-62
2022/09/03 09:41:43;;;;;;;3.30;3.00;;;;;;;;;;5053964;28;20025;-62
2022/09/03 09:44:18;;;;;;;4.05;3.50;;;;;;;;;;5053643;28;20017;-62
2022/09/03 09:46:44;;;;;;;3.20;2.95;;;;;;;;;;5053562;28;20029;-62
2022/09/03 09:49:27;;;;;;;3.13;2.88;;;;;;;;;;5053574;28;20420;-62
2022/09/03 09:52:00;;;;;;;3.20;2.65;;;;;;;;;;5035683;28;20037;-62
2022/09/03 09:54:26;;;;;;;2.60;2.40;;;;;;;;;;5053753;28;20473;-63
2022/09/03 09:56:59;;;;;;;3.17;2.70;;;;;;;;;;5053504;28;20032;-62
2022/09/03 09:59:25;;;;;;;3.20;2.28;;;;;;;;;;5053627;28;20040;-62
2022/09/03 10:01:50;;;;;;;2.97;2.70;;;;;;;;;;5058673;28;20460;-62
2022/09/03 10:04:23;;;;;;;5.60;3.20;;;;;;;;;;5059901;28;20040;-63
2022/09/03 10:06:56;;;;;;;4.72;3.10;;;;;;;;;;5060336;28;20025;-63
2022/09/03 10:09:23;;;;;;;2.50;2.38;;;;;;;;;;5060617;28;20135;-62
2022/09/03 10:11:50;;;;;;;3.72;3.00;;;;;;;;;;5060557;28;20031;-62
2022/09/03 10:14:15;;;;;;;3.20;2.67;;;;;;;;;;5059972;28;20037;-63
2022/09/03 10:16:44;;;;;;;3.10;2.90;;;;;;;;;;5060553;28;20028;-62
2022/09/03 10:19:16;;;;;;;3.33;2.80;;;;;;;;;;5059880;28;20441;-62
2022/09/03 10:22:02;;;;;;;2.88;2.67;;;;;;;;;;5059931;28;20048;-62
2022/09/03 10:24:40;;;;;;;3.90;2.42;;;;;;;;;;5042398;28;20021;-62
2022/09/03 10:27:10;;;;;;;3.67;3.00;;;;;;;;;;5060158;28;20086;-63
2022/09/03 10:29:36;;;;;;;3.23;2.67;;;;;;;;;;5059885;28;20088;-63
2022/09/03 10:32:15;;;;;;;4.07;2.88;;;;;;;;;;5060112;28;20021;-62
2022/09/03 10:34:57;;;;;;;2.95;2.72;;;;;;;;;;5042580;28;20041;-62
2022/09/03 10:37:32;;;;;;;3.63;3.33;;;;;;;;;;5059772;28;20164;-62
2022/09/03 10:40:08;;;;;;;5.15;3.08;;;;;;;;;;5060032;28;20075;-62
2022/09/03 10:42:38;;;;;;;3.35;3.05;;;;;;;;;;5042247;28;20029;-62
2022/09/03 10:45:14;;;;;;;14.80;6.23;;;;;;;;;;5060308;28;20025;-63
2022/09/03 10:47:58;;;;;;;6.00;3.92;;;;;;;;;;5060000;28;20059;-62
2022/09/03 10:50:39;;;;;;;7.20;5.10;;;;;;;;;;5107053;22;20416;-65
2022/09/03 10:53:11;;;;;;;3.67;3.38;;;;;;;;;;5091061;22;20495;-63
2022/09/03 10:55:47;;;;;;;6.40;4.00;;;;;;;;;;5079909;28;20033;-62
2022/09/03 10:58:37;;;;;;;3.00;2.80;;;;;;;;;;5061977;28;20460;-63
2022/09/03 11:01:03;;;;;;;;;;;;;;;;;;5080037;28;20498;-62
2022/09/03 11:03:52;;;;;;;3.53;3.22;;;;;;;;;;5079620;28;19905;-62
2022/09/03 11:06:23;;;;;;;2.65;2.45;;;;;;;;;;5080066;28;20025;-63
2022/09/03 11:08:58;;;;;;;2.88;2.58;;;;;;;;;;5079523;28;20035;-62
2022/09/03 11:11:32;;;;;;;3.30;2.70;;;;;;;;;;5080021;28;20029;-63
2022/09/03 11:14:07;;;;;;;5.95;3.00;;;;;;;;;;5075964;28;20451;-62
2022/09/03 11:16:37;;;;;;;3.75;3.22;;;;;;;;;;5076565;28;20385;-62
2022/09/03 11:21:35;;;;;;;2.80;2.55;;;;;;;;;;5068442;22;20505;-62
2022/09/03 11:24:12;;;;;;;4.70;3.00;;;;;;;;;;5056305;28;20480;-62
2022/09/03 11:26:39;;;;;;;4.00;2.50;;;;;;;;;;5054795;28;20028;-62
2022/09/03 11:29:07;;;;;;;3.00;2.70;;;;;;;;;;5056010;28;20031;-62
2022/09/03 11:31:48;;;;;;;2.65;2.42;;;;;;;;;;5056171;28;20433;-62
2022/09/03 11:34:25;;;;;;;3.05;2.70;;;;;;;;;;5056484;28;20428;-61
2022/09/03 11:36:51;;;;;;;2.70;2.50;;;;;;;;;;5055877;28;20450;-62
2022/09/03 11:39:22;;;;;;;3.25;2.40;;;;;;;;;;5055729;28;20075;-62
2022/09/03 11:42:05;;;;;;;3.00;2.80;;;;;;;;;;5056008;28;20029;-62
2022/09/03 11:44:39;;;;;;;6.03;2.92;;;;;;;;;;5055939;28;20032;-62
2022/09/03 11:47:15;;;;;;;2.90;2.70;;;;;;;;;;5055946;28;20029;-62
2022/09/03 11:49:45;;;;;;;2.70;2.50;;;;;;;;;;5055879;28;20032;-62
2022/09/03 11:52:11;;;;;;;2.70;2.50;;;;;;;;;;5071624;28;20037;-62
2022/09/03 11:54:43;;;;;;;2.40;2.20;;;;;;;;;;5055844;28;20027;-62
2022/09/03 11:57:12;;;;;;;3.83;3.47;;;;;;;;;;5055464;28;20029;-62
2022/09/03 11:59:38;;;;;;;3.20;2.63;;;;;;;;;;5055613;28;20016;-62
2022/09/03 12:02:11;;;;;;;2.63;2.42;;;;;;;;;;5055790;28;20048;-61
2022/09/03 12:04:43;;;;;;;5.03;2.60;;;;;;;;;;5070835;28;20029;-62
2022/09/03 12:07:28;;;;;;;4.28;2.55;;;;;;;;;;5055525;28;20025;-62
2022/09/03 12:10:09;;;;;;;2.67;2.50;;;;;;;;;;5055559;28;20064;-61
2022/09/03 12:12:38;;;;;;;3.30;3.10;;;;;;;;;;5055729;28;20056;-62
2022/09/03 12:15:15;;;;;;;3.65;2.65;;;;;;;;;;5055491;28;20048;-62
2022/09/03 12:20:41;;;;;;;2.33;2.15;;;;;;;;;;5055433;28;20029;-62
2022/09/03 12:23:09;;;;;;;2.97;2.65;;;;;;;;;;5055269;28;20039;-62
2022/09/03 12:25:41;;;;;;;3.55;2.83;;;;;;;;;;5054077;28;20488;-62
2022/09/03 12:28:11;;;;;;;3.50;3.00;;;;;;;;;;5054916;28;20025;-62
2022/09/03 12:30:36;;;;;;;2.17;2.08;;;;;;;;;;5055132;28;20047;-62
2022/09/03 12:33:05;;;;;;;3.75;2.58;;;;;;;;;;5055068;28;20500;-62
2022/09/03 12:35:31;;;;;;;2.85;2.47;;;;;;;;;;5054702;28;20407;-62
2022/09/03 12:37:57;;;;;;;2.88;2.63;;;;;;;;;;5054991;28;20055;-62
2022/09/03 12:40:27;;;;;;;2.70;2.50;;;;;;;;;;5054565;28;20037;-62
2022/09/03 12:42:53;;;;;;;3.05;2.83;;;;;;;;;;5054845;28;20024;-61
2022/09/03 12:45:23;;;;;;;3.20;2.67;;;;;;;;;;5054568;28;20419;-62
2022/09/03 12:47:49;;;;;;;3.55;2.88;;;;;;;;;;5054823;28;20082;-61
2022/09/03 12:50:21;;;;;;;3.00;2.80;;;;;;;;;;5054745;28;20104;-62
2022/09/03 12:52:52;;;;;;;3.20;2.90;;;;;;;;;;5054622;28;20040;-62
2022/09/03 12:55:21;;;;;;;3.05;2.75;;;;;;;;;;5036542;28;20083;-63
2022/09/03 12:57:48;;;;;;;3.70;2.80;;;;;;;;;;5036514;28;20028;-62
2022/09/03 13:00:15;;;;;;;3.03;2.83;;;;;;;;;;5069968;28;20035;-62
2022/09/03 13:03:01;;;;;;;3.10;2.88;;;;;;;;;;5054272;28;20017;-62
2022/09/03 13:05:30;;;;;;;3.17;2.90;;;;;;;;;;5054464;28;20024;-62
2022/09/03 13:07:58;;;;;;;2.92;2.72;;;;;;;;;;5054355;28;20420;-62
2022/09/03 13:10:25;;;;;;;2.92;2.72;;;;;;;;;;5054125;28;20025;-62
2022/09/03 13:12:51;;;;;;;3.10;2.70;;;;;;;;;;5054348;28;20346;-62
2022/09/03 13:15:18;;;;;;;2.97;2.78;;;;;;;;;;5052758;28;20035;-66
2022/09/03 13:18:02;;;;;;;2.38;2.28;;;;;;;;;;5073990;28;20020;-66
2022/09/03 13:20:37;;;;;;;2.30;2.20;;;;;;;;;;5074401;28;20417;-66
2022/09/03 13:23:10;;;;;;;4.63;3.28;;;;;;;;;;5074164;28;20123;-66
2022/09/03 13:25:36;;;;;;;3.60;2.90;;;;;;;;;;5073855;28;20544;-66
2022/09/03 13:28:23;;;;;;;3.45;3.08;;;;;;;;;;5055968;28;20055;-66
2022/09/03 13:30:54;;;;;;;3.33;2.90;;;;;;;;;;5074033;28;20037;-66
2022/09/03 13:33:19;;;;;;;3.33;3.03;;;;;;;;;;5073740;28;20039;-66
2022/09/03 13:35:44;;;;;;;3.45;3.10;;;;;;;;;;5055434;28;20020;-66
2022/09/03 13:38:25;;;;;;;4.20;3.75;;;;;;;;;;5055867;28;20357;-66
2022/09/03 13:40:51;;;;;;;4.07;3.78;;;;;;;;;;5074219;28;20044;-66
2022/09/03 13:43:27;;;;;;;5.53;5.13;;;;;;;;;;5073960;28;20043;-66
2022/09/03 13:46:11;;;;;;;5.65;5.25;;;;;;;;;;5073977;28;20029;-66
2022/09/03 13:51:38;;;;;;;2.80;2.60;;;;;;;;;;5055566;28;20472;-66
2022/09/03 13:54:12;;;;;;;3.28;2.95;;;;;;;;;;5055597;28;20099;-66
2022/09/03 13:56:53;;;;;;;3.00;2.80;;;;;;;;;;5073492;28;20024;-66
2022/09/03 13:59:24;;;;;;;2.83;2.47;;;;;;;;;;5073715;28;20068;-66
2022/09/03 14:01:57;;;;;;;5.68;2.45;;;;;;;;;;5073746;28;20111;-66
2022/09/03 14:04:39;;;;;;;4.15;3.03;;;;;;;;;;5073406;28;20025;-66
2022/09/03 14:07:11;;;;;;;3.33;3.08;;;;;;;;;;5073655;28;20072;-66
2022/09/03 14:09:38;;;;;;;2.78;2.58;;;;;;;;;;5073690;28;20043;-66
2022/09/03 14:12:05;;;;;;;2.80;2.60;;;;;;;;;;5073450;28;20048;-66
2022/09/03 14:14:49;;;;;;;3.97;2.60;;;;;;;;;;5073616;28;20029;-66
2022/09/03 14:17:14;;;;;;;2.97;2.72;;;;;;;;;;5073292;28;20040;-66
2022/09/03 14:19:39;;;;;;;2.67;2.55;;;;;;;;;;5073499;28;20403;-62
2022/09/03 14:22:05;;;;;;;2.67;2.47;;;;;;;;;;5073169;28;20036;-62
2022/09/03 14:24:46;;;;;;;2.95;2.75;;;;;;;;;;5073548;28;20033;-61
2022/09/03 14:27:11;;;;;;;2.63;2.42;;;;;;;;;;5073491;28;20115;-62
2022/09/03 14:29:37;;;;;;;3.67;3.30;;;;;;;;;;5088851;28;20083;-62
2022/09/03 14:32:21;;;;;;;3.30;2.90;;;;;;;;;;5073180;28;20034;-62
2022/09/03 14:34:49;;;;;;;3.22;2.92;;;;;;;;;;5073405;28;20036;-62
2022/09/03 14:37:33;;;;;;;3.20;2.97;;;;;;;;;;5073404;28;20081;-62
2022/09/03 14:40:14;;;;;;;2.53;2.33;;;;;;;;;;5072985;28;20108;-61
2022/09/03 14:42:46;;;;;;;3.58;2.30;;;;;;;;;;5073359;28;20024;-62
2022/09/03 14:45:11;;;;;;;2.67;2.42;;;;;;;;;;5073611;28;20046;-62
2022/09/03 14:47:45;;;;;;;2.67;2.47;;;;;;;;;;5073878;28;20476;-62
2022/09/03 14:50:20;;;;;;;3.00;2.80;;;;;;;;;;5076779;28;20074;-62
2022/09/03 14:53:05;;;;;;;3.13;2.90;;;;;;;;;;5076685;28;20071;-62
2022/09/03 14:55:39;;;;;;;2.88;2.67;;;;;;;;;;5076930;28;20036;-62
2022/09/03 14:58:20;;;;;;;3.30;2.55;;;;;;;;;;5076563;28;20044;-62
2022/09/03 15:00:49;;;;;;;2.47;2.28;;;;;;;;;;5076805;28;20051;-62
2022/09/03 15:03:14;;;;;;;3.00;2.47;;;;;;;;;;5076815;28;20025;-62
2022/09/03 15:05:40;;;;;;;4.28;2.78;;;;;;;;;;5075235;28;20143;-61
2022/09/03 15:08:31;;;;;;;2.97;2.60;;;;;;;;;;5076394;28;20066;-62
2022/09/03 15:11:00;;;;;;;3.10;2.25;;;;;;;;;;5076945;28;20067;-62
2022/09/03 15:13:41;;;;;;;4.55;2.10;;;;;;;;;;5058432;28;20464;-62